Time;durP1;ratioP1;P1;durP2;ratioP2;P2;SDS_P1;SDS_P2;PMS_P1;PMS_P2;Temp;Humidity;BMP_temperature;BMP_pressure;BME280_temperature;BME280_humidity;BME280_pressure;Samples;Min_cycle;Max_cycle;Signal;HPM_P1;HPM_P2
2022/10/21 00:02:08;;;;;;;;;;;8.80;99.90;;;;;;5127506;27;1384;-53
2022/10/21 00:04:46;;;;;;;;;;;8.80;99.90;;;;;;5115689;27;1262;-53
2022/10/21 00:07:24;;;;;;;;;;;8.80;99.90;;;;;;5076272;27;1492;-53
2022/10/21 00:10:03;;;;;;;;;;;8.90;99.90;;;;;;5114481;27;2080;-53
2022/10/21 00:12:41;;;;;;;;;;;8.90;99.90;;;;;;5122230;27;1680;-54
2022/10/21 00:15:19;;;;;;;;;;;8.90;99.90;;;;;;5112648;27;1279;-53
2022/10/21 00:17:57;;;;;;;;;;;9.00;99.90;;;;;;5109965;27;1711;-53
2022/10/21 00:20:35;;;;;;;;;;;9.00;99.90;;;;;;5126678;27;1332;-53
2022/10/21 00:23:13;;;;;;;;;;;9.00;99.90;;;;;;5127760;27;1308;-53
2022/10/21 00:25:55;;;;;;;;;;;9.00;99.90;;;;;;5089492;27;1363;-53
2022/10/21 00:28:32;;;;;;;;;;;9.00;99.90;;;;;;5106036;27;1391;-53
2022/10/21 00:31:11;;;;;;;;;;;8.90;99.90;;;;;;5126608;27;1333;-53
2022/10/21 00:33:50;;;;;;;;;;;8.90;99.90;;;;;;5127450;27;1711;-53
2022/10/21 00:36:28;;;;;;;;;;;8.90;99.90;;;;;;5126403;27;1549;-53
2022/10/21 00:39:06;;;;;;;;;;;8.90;99.90;;;;;;5119749;27;1722;-53
2022/10/21 00:41:44;;;;;;;;;;;8.90;99.90;;;;;;5126750;27;1805;-53
2022/10/21 00:44:23;;;;;;;;;;;8.80;99.90;;;;;;5127072;27;1360;-53
2022/10/21 00:47:02;;;;;;;;;;;8.90;99.90;;;;;;5117768;27;1746;-53
2022/10/21 00:49:42;;;;;;;;;;;8.90;99.90;;;;;;5119346;27;2096;-53
2022/10/21 00:52:20;;;;;;;;;;;8.90;99.90;;;;;;5124205;27;1657;-53
2022/10/21 00:55:01;;;;;;;;;;;8.80;99.90;;;;;;5127334;27;1331;-53
2022/10/21 00:57:39;;;;;;;;;;;8.80;99.90;;;;;;5112766;27;1407;-53
2022/10/21 01:00:17;;;;;;;;;;;8.80;99.90;;;;;;5126363;27;1543;-53
2022/10/21 01:02:55;;;;;;;;;;;8.70;99.90;;;;;;5122369;27;1604;-53
2022/10/21 01:05:36;;;;;;;;;;;8.70;99.90;;;;;;5122263;27;1282;-53
2022/10/21 01:08:13;;;;;;;;;;;8.70;99.90;;;;;;5093224;27;1612;-53
2022/10/21 01:10:51;;;;;;;;;;;8.70;99.90;;;;;;5117309;27;1365;-53
2022/10/21 01:13:35;;;;;;;;;;;8.70;99.90;;;;;;5125647;27;1414;-52
2022/10/21 01:16:17;;;;;;;;;;;8.70;99.90;;;;;;5116806;27;1397;-53
2022/10/21 01:18:59;;;;;;;;;;;8.60;99.90;;;;;;5126400;27;1343;-53
2022/10/21 01:21:37;;;;;;;;;;;8.60;99.90;;;;;;5127347;27;1764;-53
2022/10/21 01:24:33;;;;;;;;;;;8.60;99.90;;;;;;5127300;27;1485;-53
2022/10/21 01:27:16;;;;;;;;;;;8.50;99.90;;;;;;5116400;27;1471;-53
2022/10/21 01:30:12;;;;;;;;;;;8.50;99.90;;;;;;5106597;27;1712;-53
2022/10/21 01:33:06;;;;;;;;;;;8.40;99.90;;;;;;5115537;27;1340;-53
2022/10/21 01:35:47;;;;;;;;;;;8.30;99.90;;;;;;5127051;27;1436;-52
2022/10/21 01:38:31;;;;;;;;;;;8.20;99.90;;;;;;5107398;27;1325;-53
2022/10/21 01:41:12;;;;;;;;;;;8.10;99.90;;;;;;5126771;27;1325;-53
2022/10/21 01:43:55;;;;;;;;;;;8.00;99.90;;;;;;5123897;27;1874;-53
2022/10/21 01:46:35;;;;;;;;;;;8.00;99.90;;;;;;5123029;27;1428;-53
2022/10/21 01:49:15;;;;;;;;;;;8.00;99.90;;;;;;5080607;27;1710;-53
2022/10/21 01:51:54;;;;;;;;;;;7.80;99.90;;;;;;5124634;27;1497;-53
2022/10/21 01:54:33;;;;;;;;;;;7.70;99.90;;;;;;5122031;27;1558;-53
2022/10/21 01:57:13;;;;;;;;;;;7.60;99.90;;;;;;5112215;27;1705;-53
2022/10/21 01:59:51;;;;;;;;;;;7.50;99.90;;;;;;5126375;27;1571;-53
2022/10/21 02:02:30;;;;;;;;;;;7.50;99.90;;;;;;5119176;27;2132;-53
2022/10/21 02:05:13;;;;;;;;;;;7.40;99.90;;;;;;5119111;27;1307;-53
2022/10/21 02:07:50;;;;;;;;;;;7.40;99.90;;;;;;5109104;27;1591;-53
2022/10/21 02:10:29;;;;;;;;;;;7.40;99.90;;;;;;5071514;27;1376;-53
2022/10/21 02:13:09;;;;;;;;;;;7.40;99.90;;;;;;5120896;27;1722;-53
2022/10/21 02:15:46;;;;;;;;;;;7.40;99.90;;;;;;5113273;27;2385;-53
2022/10/21 02:18:25;;;;;;;;;;;7.40;99.90;;;;;;5106074;27;1539;-53
2022/10/21 02:21:04;;;;;;;;;;;7.40;99.90;;;;;;5127058;27;1381;-53
2022/10/21 02:23:45;;;;;;;;;;;7.30;99.90;;;;;;5127093;27;1681;-53
2022/10/21 02:26:24;;;;;;;;;;;7.20;99.90;;;;;;5089257;27;1344;-53
2022/10/21 02:29:01;;;;;;;;;;;7.10;99.90;;;;;;5117060;27;1691;-53
2022/10/21 02:31:44;;;;;;;;;;;6.90;99.90;;;;;;5108459;27;2166;-53
2022/10/21 02:34:29;;;;;;;;;;;6.80;99.90;;;;;;5113215;27;1331;-55
2022/10/21 02:37:14;;;;;;;;;;;6.70;99.90;;;;;;5138031;27;1549;-53
2022/10/21 02:39:52;;;;;;;;;;;6.70;99.90;;;;;;5078002;27;1409;-53
2022/10/21 02:42:32;;;;;;;;;;;6.70;99.90;;;;;;5127831;27;1431;-55
2022/10/21 02:45:10;;;;;;;;;;;6.80;99.90;;;;;;5127990;27;1458;-53
2022/10/21 02:47:48;;;;;;;;;;;6.80;99.90;;;;;;5111239;27;1664;-53
2022/10/21 02:50:26;;;;;;;;;;;6.80;99.90;;;;;;5108551;27;1768;-53
2022/10/21 02:53:04;;;;;;;;;;;6.80;99.90;;;;;;5122552;27;1708;-53
2022/10/21 02:55:42;;;;;;;;;;;6.70;99.90;;;;;;5114237;27;1756;-53
2022/10/21 02:58:20;;;;;;;;;;;6.50;99.90;;;;;;5057776;27;1392;-53
2022/10/21 03:00:59;;;;;;;;;;;6.50;99.90;;;;;;5127954;27;1363;-53
2022/10/21 03:03:37;;;;;;;;;;;6.40;99.90;;;;;;5128055;27;1348;-53
2022/10/21 03:06:15;;;;;;;;;;;6.40;99.90;;;;;;5128123;27;1423;-54
2022/10/21 03:08:53;;;;;;;;;;;6.50;99.90;;;;;;5127207;27;1551;-53
2022/10/21 03:11:32;;;;;;;;;;;6.40;99.90;;;;;;5128446;27;1368;-53
2022/10/21 03:14:10;;;;;;;;;;;6.30;99.90;;;;;;5082494;27;1412;-54
2022/10/21 03:16:48;;;;;;;;;;;6.20;99.90;;;;;;5121779;27;1359;-53
2022/10/21 03:19:26;;;;;;;;;;;6.10;99.90;;;;;;5123378;27;1760;-54
2022/10/21 03:22:04;;;;;;;;;;;6.10;99.90;;;;;;5124739;27;2271;-54
2022/10/21 03:24:43;;;;;;;;;;;6.20;99.90;;;;;;5110860;27;1335;-55
2022/10/21 03:27:21;;;;;;;;;;;6.30;99.90;;;;;;5101494;27;1568;-53
2022/10/21 03:30:01;;;;;;;;;;;6.40;99.90;;;;;;5127119;27;1616;-53
2022/10/21 03:32:39;;;;;;;;;;;6.50;99.90;;;;;;5128004;27;1343;-53
2022/10/21 03:35:17;;;;;;;;;;;6.60;99.90;;;;;;5128138;27;1339;-55
2022/10/21 03:37:55;;;;;;;;;;;6.60;99.90;;;;;;5109525;27;1575;-53
2022/10/21 03:40:34;;;;;;;;;;;6.60;99.90;;;;;;5124955;27;1619;-53
2022/10/21 03:43:12;;;;;;;;;;;6.60;99.90;;;;;;5111371;27;1635;-54
2022/10/21 03:45:50;;;;;;;;;;;6.60;99.90;;;;;;5110075;27;1517;-54
2022/10/21 03:48:28;;;;;;;;;;;6.60;99.90;;;;;;5100396;27;1696;-53
2022/10/21 03:51:07;;;;;;;;;;;6.60;99.90;;;;;;5123163;27;1212;-53
2022/10/21 03:53:45;;;;;;;;;;;6.60;99.90;;;;;;5114051;27;1893;-53
2022/10/21 03:56:23;;;;;;;;;;;6.60;99.90;;;;;;5106195;27;1433;-53
2022/10/21 03:59:01;;;;;;;;;;;6.50;99.90;;;;;;5100522;27;1678;-53
2022/10/21 04:01:39;;;;;;;;;;;6.50;99.90;;;;;;5125781;27;1620;-53
2022/10/21 04:04:18;;;;;;;;;;;6.50;99.90;;;;;;5118229;27;1323;-54
2022/10/21 04:06:56;;;;;;;;;;;6.50;99.90;;;;;;5096871;27;1953;-53
2022/10/21 04:09:34;;;;;;;;;;;6.60;99.90;;;;;;5120211;27;1982;-54
2022/10/21 04:12:12;;;;;;;;;;;6.60;99.90;;;;;;5117855;27;1466;-53
2022/10/21 04:14:51;;;;;;;;;;;6.70;99.90;;;;;;5114580;27;1830;-53
2022/10/21 04:17:29;;;;;;;;;;;6.70;99.90;;;;;;5110619;27;1745;-55
2022/10/21 04:20:08;;;;;;;;;;;6.70;99.90;;;;;;5103566;27;1275;-53
2022/10/21 04:22:45;;;;;;;;;;;6.80;99.90;;;;;;5106447;27;1320;-53
2022/10/21 04:25:23;;;;;;;;;;;7.00;99.90;;;;;;5081796;27;1639;-54
2022/10/21 04:28:02;;;;;;;;;;;7.10;99.90;;;;;;5109313;27;1734;-53
2022/10/21 04:30:40;;;;;;;;;;;7.20;99.90;;;;;;5115493;27;1335;-52
2022/10/21 04:33:18;;;;;;;;;;;7.20;99.90;;;;;;5090484;27;1284;-54
2022/10/21 04:35:57;;;;;;;;;;;7.20;99.90;;;;;;5124439;27;1314;-53
2022/10/21 04:38:35;;;;;;;;;;;7.20;99.90;;;;;;5120896;27;1705;-53
2022/10/21 04:41:13;;;;;;;;;;;7.20;99.90;;;;;;5106360;27;2130;-53
2022/10/21 04:43:51;;;;;;;;;;;7.20;99.90;;;;;;5126886;27;1320;-53
2022/10/21 04:46:29;;;;;;;;;;;7.20;99.90;;;;;;5118145;27;1319;-53
2022/10/21 04:49:08;;;;;;;;;;;7.10;99.90;;;;;;5101171;27;1636;-53
2022/10/21 04:51:46;;;;;;;;;;;7.10;99.90;;;;;;5109974;27;1640;-54
2022/10/21 04:54:24;;;;;;;;;;;7.20;99.90;;;;;;5112961;27;1353;-53
2022/10/21 04:57:02;;;;;;;;;;;7.20;99.90;;;;;;5117226;27;1388;-52
2022/10/21 04:59:40;;;;;;;;;;;7.20;99.90;;;;;;5126049;27;1253;-53
2022/10/21 05:02:19;;;;;;;;;;;7.20;99.90;;;;;;5122712;27;1659;-53
2022/10/21 05:04:57;;;;;;;;;;;7.30;99.90;;;;;;5116111;27;1696;-53
2022/10/21 05:07:35;;;;;;;;;;;7.20;99.90;;;;;;5111575;27;1508;-54
2022/10/21 05:10:13;;;;;;;;;;;7.20;99.90;;;;;;5086550;27;1754;-53
2022/10/21 05:12:52;;;;;;;;;;;7.20;99.90;;;;;;5126937;27;1344;-53
2022/10/21 05:15:30;;;;;;;;;;;7.20;99.90;;;;;;5118172;27;2016;-52
2022/10/21 05:18:08;;;;;;;;;;;7.10;99.90;;;;;;5105104;27;1592;-53
2022/10/21 05:20:51;;;;;;;;;;;7.00;99.90;;;;;;5110452;27;1677;-54
2022/10/21 05:23:28;;;;;;;;;;;7.00;99.90;;;;;;5077509;27;1393;-52
2022/10/21 05:26:06;;;;;;;;;;;7.10;99.90;;;;;;5126628;27;1293;-53
2022/10/21 05:28:44;;;;;;;;;;;7.20;99.90;;;;;;5088990;27;1361;-53
2022/10/21 05:31:22;;;;;;;;;;;7.30;99.90;;;;;;5127301;27;1338;-53
2022/10/21 05:34:01;;;;;;;;;;;7.40;99.90;;;;;;5119682;27;1942;-53
2022/10/21 05:36:39;;;;;;;;;;;7.50;99.90;;;;;;5120621;27;1329;-53
2022/10/21 05:39:17;;;;;;;;;;;7.60;99.90;;;;;;5094467;22;1815;-57
2022/10/21 05:41:55;;;;;;;;;;;7.70;99.90;;;;;;5084874;27;1461;-57
2022/10/21 05:44:34;;;;;;;;;;;7.80;99.90;;;;;;5088653;27;1609;-57
2022/10/21 05:47:12;;;;;;;;;;;7.80;99.90;;;;;;5088716;27;1636;-57
2022/10/21 05:49:51;;;;;;;;;;;7.80;99.90;;;;;;5088697;27;1632;-57
2022/10/21 05:52:28;;;;;;;;;;;7.70;99.90;;;;;;5089289;27;1638;-57
2022/10/21 05:55:08;;;;;;;;;;;7.70;99.90;;;;;;5126970;27;1343;-57
2022/10/21 05:57:45;;;;;;;;;;;7.60;99.90;;;;;;5111146;27;1381;-57
2022/10/21 06:00:23;;;;;;;;;;;7.60;99.90;;;;;;5126723;27;1335;-57
2022/10/21 06:03:02;;;;;;;;;;;7.60;99.90;;;;;;5126871;27;1256;-57
2022/10/21 06:05:39;;;;;;;;;;;7.60;99.90;;;;;;5086860;27;1357;-55
2022/10/21 06:08:18;;;;;;;;;;;7.70;99.90;;;;;;5096599;27;1688;-57
2022/10/21 06:11:03;;;;;;;;;;;7.80;99.90;;;;;;5124887;27;1288;-57
2022/10/21 06:13:41;;;;;;;;;;;7.90;99.90;;;;;;5125869;27;1407;-57
2022/10/21 06:16:19;;;;;;;;;;;8.00;99.90;;;;;;5117884;27;1661;-57
2022/10/21 06:18:57;;;;;;;;;;;8.20;99.90;;;;;;5112669;27;1384;-57
2022/10/21 06:21:35;;;;;;;;;;;8.30;99.90;;;;;;5090301;27;1754;-58
2022/10/21 06:24:14;;;;;;;;;;;8.30;99.90;;;;;;5118393;27;1879;-57
2022/10/21 06:26:52;;;;;;;;;;;8.40;99.90;;;;;;5124035;27;1738;-57
2022/10/21 06:29:30;;;;;;;;;;;8.40;99.90;;;;;;5065495;27;1332;-56
2022/10/21 06:32:08;;;;;;;;;;;8.50;99.90;;;;;;5126511;27;1347;-57
2022/10/21 06:34:46;;;;;;;;;;;8.50;99.90;;;;;;5090159;27;2245;-57
2022/10/21 06:37:25;;;;;;;;;;;8.60;99.90;;;;;;5067557;27;1627;-57
2022/10/21 06:40:03;;;;;;;;;;;8.70;99.90;;;;;;5108129;27;1683;-57
2022/10/21 06:42:41;;;;;;;;;;;8.80;99.90;;;;;;5126632;27;1471;-57
2022/10/21 06:45:19;;;;;;;;;;;9.00;99.90;;;;;;5089490;27;1351;-57
2022/10/21 06:47:57;;;;;;;;;;;9.10;99.90;;;;;;5115489;27;1696;-57
2022/10/21 06:50:36;;;;;;;;;;;9.30;99.90;;;;;;5126058;27;1323;-57
2022/10/21 06:53:14;;;;;;;;;;;9.40;99.90;;;;;;5088441;27;1349;-57
2022/10/21 06:55:59;;;;;;;;;;;9.60;99.90;;;;;;5086274;27;1613;-57
2022/10/21 06:58:38;;;;;;;;;;;9.90;99.90;;;;;;5093928;27;1664;-57
2022/10/21 07:01:18;;;;;;;;;;;10.10;99.90;;;;;;5090021;27;1396;-57
2022/10/21 07:03:56;;;;;;;;;;;10.30;99.90;;;;;;5089556;27;1497;-57
2022/10/21 07:06:35;;;;;;;;;;;10.50;99.90;;;;;;5086090;27;1612;-57
2022/10/21 07:09:13;;;;;;;;;;;10.60;99.90;;;;;;5069112;27;1963;-57
2022/10/21 07:11:51;;;;;;;;;;;10.60;99.90;;;;;;5081950;27;1693;-57
2022/10/21 07:14:29;;;;;;;;;;;10.60;99.90;;;;;;5118806;27;1708;-57
2022/10/21 07:17:08;;;;;;;;;;;10.60;99.90;;;;;;5125535;27;1551;-57
2022/10/21 07:19:46;;;;;;;;;;;10.60;99.90;;;;;;5126994;27;1327;-57
2022/10/21 07:22:24;;;;;;;;;;;10.50;99.90;;;;;;5076837;27;2020;-57
2022/10/21 07:25:02;;;;;;;;;;;10.70;99.90;;;;;;5089046;27;1336;-57
2022/10/21 07:27:40;;;;;;;;;;;10.80;99.90;;;;;;5122224;27;1423;-57
2022/10/21 07:30:19;;;;;;;;;;;11.10;99.90;;;;;;5119415;27;1335;-57
2022/10/21 07:32:57;;;;;;;;;;;11.30;99.90;;;;;;5085330;27;1638;-57
2022/10/21 07:35:35;;;;;;;;;;;11.50;99.90;;;;;;5069924;27;1336;-57
2022/10/21 07:38:13;;;;;;;;;;;11.60;99.90;;;;;;5115457;27;1709;-57
2022/10/21 07:40:52;;;;;;;;;;;11.80;99.90;;;;;;5089137;27;1973;-57
2022/10/21 07:43:30;;;;;;;;;;;11.90;99.90;;;;;;5117635;27;1349;-57
2022/10/21 07:46:08;;;;;;;;;;;11.80;99.90;;;;;;5127906;27;1577;-57
2022/10/21 07:48:47;;;;;;;;;;;11.70;99.90;;;;;;5076508;27;1299;-57
2022/10/21 07:51:25;;;;;;;;;;;11.60;99.90;;;;;;5133742;27;2185;-57
2022/10/21 07:54:03;;;;;;;;;;;11.50;99.90;;;;;;5126029;27;1653;-57
2022/10/21 07:56:42;;;;;;;;;;;11.60;99.90;;;;;;5107520;27;1421;-57
2022/10/21 07:59:20;;;;;;;;;;;11.70;99.90;;;;;;5109402;27;1290;-57
2022/10/21 08:01:57;;;;;;;;;;;11.80;99.90;;;;;;5129165;27;1308;-57
2022/10/21 08:04:36;;;;;;;;;;;12.00;99.90;;;;;;5129297;27;1270;-57
2022/10/21 08:07:14;;;;;;;;;;;12.10;99.90;;;;;;5084162;27;1663;-57
2022/10/21 08:09:52;;;;;;;;;;;12.20;99.90;;;;;;5084367;27;1300;-57
2022/10/21 08:12:30;;;;;;;;;;;12.30;99.90;;;;;;5080626;27;1422;-57
2022/10/21 08:15:09;;;;;;;;;;;12.50;99.90;;;;;;5088125;27;1268;-57
2022/10/21 08:17:47;;;;;;;;;;;12.70;99.90;;;;;;5085973;27;1775;-57
2022/10/21 08:20:25;;;;;;;;;;;13.00;99.90;;;;;;5127601;27;1270;-57
2022/10/21 08:23:03;;;;;;;;;;;13.20;99.90;;;;;;5102964;27;1436;-57
2022/10/21 08:25:46;;;;;;;;;;;13.30;99.90;;;;;;5117923;27;1280;-57
2022/10/21 08:28:24;;;;;;;;;;;13.60;99.90;;;;;;5120001;27;1729;-57
2022/10/21 08:31:05;;;;;;;;;;;13.80;99.90;;;;;;5128747;27;1769;-57
2022/10/21 08:33:43;;;;;;;;;;;14.00;99.90;;;;;;5129380;27;1670;-56
2022/10/21 08:36:22;;;;;;;;;;;14.30;99.90;;;;;;5120683;27;2169;-56
2022/10/21 08:38:59;;;;;;;;;;;14.70;99.90;;;;;;5111478;27;1327;-57
2022/10/21 08:41:42;;;;;;;;;;;15.00;99.90;;;;;;5089478;27;1282;-57
2022/10/21 08:44:26;;;;;;;;;;;15.20;99.90;;;;;;5129148;27;1872;-57
2022/10/21 08:47:06;;;;;;;;;;;15.40;99.90;;;;;;5091071;27;1518;-56
2022/10/21 08:49:57;;;;;;;;;;;15.40;99.90;;;;;;5088165;27;2890;-57
2022/10/21 08:52:40;;;;;;;;;;;15.30;99.90;;;;;;5127031;27;1773;-55
2022/10/21 08:55:21;;;;;;;;;;;15.20;99.90;;;;;;5109893;27;1361;-57
2022/10/21 08:57:59;;;;;;;;;;;15.30;99.90;;;;;;5084065;27;1358;-57
2022/10/21 09:00:38;;;;;;;;;;;15.50;99.90;;;;;;5091031;27;1282;-57
2022/10/21 09:03:23;;;;;;;;;;;15.70;99.90;;;;;;5091593;27;1423;-57
2022/10/21 09:06:08;;;;;;;;;;;15.90;99.90;;;;;;5122724;27;1680;-57
2022/10/21 09:08:54;;;;;;;;;;;16.00;99.90;;;;;;5111798;27;1908;-57
2022/10/21 09:11:35;;;;;;;;;;;16.10;99.90;;;;;;5090160;27;1659;-57
2022/10/21 09:14:22;;;;;;;;;;;16.10;99.90;;;;;;5116899;27;1263;-57
2022/10/21 09:17:03;;;;;;;;;;;16.10;99.90;;;;;;5129030;27;1320;-57
2022/10/21 09:19:46;;;;;;;;;;;16.30;99.90;;;;;;5128538;27;1284;-56
2022/10/21 09:22:40;;;;;;;;;;;16.40;99.90;;;;;;5088286;27;1631;-57
2022/10/21 09:25:24;;;;;;;;;;;16.60;99.90;;;;;;5112713;27;1595;-57
2022/10/21 09:28:09;;;;;;;;;;;16.70;99.90;;;;;;5116894;27;1812;-57
2022/10/21 09:30:46;;;;;;;;;;;16.60;99.90;;;;;;5089706;27;1996;-57
2022/10/21 09:33:25;;;;;;;;;;;16.80;99.90;;;;;;5121311;27;1324;-57
2022/10/21 09:36:05;;;;;;;;;;;16.90;99.90;;;;;;5126102;27;1546;-57
2022/10/21 09:38:45;;;;;;;;;;;17.00;99.90;;;;;;5110679;27;1798;-57
2022/10/21 09:41:23;;;;;;;;;;;17.20;99.90;;;;;;5090567;27;1525;-57
2022/10/21 09:44:00;;;;;;;;;;;17.30;99.90;;;;;;5129216;27;1320;-57
2022/10/21 09:46:39;;;;;;;;;;;17.20;99.90;;;;;;5122536;27;1622;-57
2022/10/21 09:49:22;;;;;;;;;;;17.10;99.90;;;;;;5091006;27;1690;-57
2022/10/21 09:52:00;;;;;;;;;;;17.00;99.90;;;;;;5090409;27;1745;-57
2022/10/21 09:54:39;;;;;;;;;;;16.80;99.90;;;;;;5128625;27;1267;-57
2022/10/21 09:57:18;;;;;;;;;;;16.60;99.90;;;;;;5108007;27;1349;-57
2022/10/21 09:59:58;;;;;;;;;;;16.30;99.90;;;;;;5128975;27;1312;-57
2022/10/21 10:02:38;;;;;;;;;;;16.10;99.90;;;;;;5129733;27;1487;-57
2022/10/21 10:05:32;;;;;;;;;;;16.00;99.90;;;;;;5127320;27;1732;-57
2022/10/21 10:08:28;;;;;;;;;;;16.00;99.90;;;;;;5116526;27;1698;-57
2022/10/21 10:11:16;;;;;;;;;;;16.00;99.90;;;;;;5110300;27;1297;-57
2022/10/21 10:13:54;;;;;;;;;;;15.90;99.90;;;;;;5091239;27;1606;-57
2022/10/21 10:16:32;;;;;;;;;;;15.80;99.90;;;;;;5092176;27;1433;-57
2022/10/21 10:19:16;;;;;;;;;;;15.60;99.90;;;;;;5113316;27;1372;-57
2022/10/21 10:22:09;;;;;;;;;;;15.30;99.90;;;;;;5105604;27;1482;-57
2022/10/21 10:24:48;;;;;;;;;;;15.00;99.90;;;;;;5130003;27;1343;-57
2022/10/21 10:27:26;;;;;;;;;;;14.80;99.90;;;;;;5150475;27;1377;-56
2022/10/21 10:30:05;;;;;;;;;;;14.70;99.90;;;;;;5129534;27;1288;-57
2022/10/21 10:32:43;;;;;;;;;;;14.60;99.90;;;;;;5129510;27;1296;-57
2022/10/21 10:35:28;;;;;;;;;;;14.60;99.90;;;;;;5126640;27;1665;-57
2022/10/21 10:38:06;;;;;;;;;;;14.60;99.90;;;;;;5102939;27;1299;-57
2022/10/21 10:40:43;;;;;;;;;;;14.60;99.90;;;;;;5095083;27;1647;-57
2022/10/21 10:43:26;;;;;;;;;;;14.60;99.90;;;;;;5071206;27;1269;-57
2022/10/21 10:46:04;;;;;;;;;;;14.70;99.90;;;;;;5129165;27;1684;-58
2022/10/21 10:48:43;;;;;;;;;;;14.80;99.90;;;;;;5104899;27;1808;-56
2022/10/21 10:51:26;;;;;;;;;;;14.90;99.90;;;;;;5121514;27;1627;-57
2022/10/21 10:54:16;;;;;;;;;;;15.10;99.90;;;;;;5075807;27;1340;-55
2022/10/21 10:56:55;;;;;;;;;;;15.30;99.90;;;;;;5091158;27;1377;-57
2022/10/21 10:59:35;;;;;;;;;;;15.40;99.90;;;;;;5109307;27;1293;-57
2022/10/21 11:02:19;;;;;;;;;;;15.60;99.90;;;;;;5130455;27;1500;-57
2022/10/21 11:05:07;;;;;;;;;;;15.80;99.90;;;;;;5127651;27;1560;-57
2022/10/21 11:07:47;;;;;;;;;;;15.90;99.90;;;;;;5117741;27;2209;-57
2022/10/21 11:10:35;;;;;;;;;;;15.80;99.90;;;;;;5124817;27;1297;-57
2022/10/21 11:13:13;;;;;;;;;;;15.90;99.90;;;;;;5130232;27;1338;-57
2022/10/21 11:15:58;;;;;;;;;;;15.90;99.90;;;;;;5115235;27;1372;-57
2022/10/21 11:18:37;;;;;;;;;;;15.80;99.90;;;;;;5080353;27;1810;-57
2022/10/21 11:21:21;;;;;;;;;;;15.90;99.90;;;;;;5071536;27;1996;-57
2022/10/21 11:24:09;;;;;;;;;;;16.00;99.90;;;;;;5126819;27;1789;-57
2022/10/21 11:26:50;;;;;;;;;;;16.00;99.90;;;;;;5109703;27;1666;-57
2022/10/21 11:29:35;;;;;;;;;;;15.80;99.90;;;;;;5094588;27;1423;-55
2022/10/21 11:32:20;;;;;;;;;;;15.60;99.90;;;;;;5091787;27;1337;-57
2022/10/21 11:35:03;;;;;;;;;;;15.50;99.90;;;;;;5128693;27;1834;-57
2022/10/21 11:37:48;;;;;;;;;;;15.40;99.90;;;;;;5082073;27;1636;-57
2022/10/21 11:40:30;;;;;;;;;;;15.30;99.90;;;;;;5128846;22;1779;-52
2022/10/21 11:43:18;;;;;;;;;;;15.30;99.90;;;;;;5150176;27;1331;-52
2022/10/21 11:45:59;;;;;;;;;;;15.30;99.90;;;;;;5124173;27;1777;-52
2022/10/21 11:48:48;;;;;;;;;;;15.40;99.90;;;;;;5108720;27;1420;-52
2022/10/21 11:51:31;;;;;;;;;;;15.60;99.90;;;;;;5091150;27;1499;-52
2022/10/21 11:54:22;;;;;;;;;;;15.70;99.90;;;;;;5129586;27;1429;-52
2022/10/21 11:57:01;;;;;;;;;;;15.70;99.90;;;;;;5091636;27;1342;-52
2022/10/21 11:59:48;;;;;;;;;;;15.80;99.90;;;;;;5118821;27;1450;-51
2022/10/21 12:02:29;;;;;;;;;;;16.00;99.90;;;;;;5129496;27;1465;-52
2022/10/21 12:05:15;;;;;;;;;;;16.20;99.90;;;;;;5089662;27;1551;-52
2022/10/21 12:08:11;;;;;;;;;;;16.20;99.90;;;;;;5103155;27;1332;-52
2022/10/21 12:10:53;;;;;;;;;;;16.00;99.90;;;;;;5126988;27;1649;-51
2022/10/21 12:13:32;;;;;;;;;;;15.80;99.90;;;;;;5086576;27;1930;-52
2022/10/21 12:16:11;;;;;;;;;;;15.70;99.90;;;;;;5123260;27;1702;-52
2022/10/21 12:18:50;;;;;;;;;;;15.60;99.90;;;;;;5105355;27;1658;-53
2022/10/21 12:21:29;;;;;;;;;;;15.80;99.90;;;;;;5125365;27;1595;-52
2022/10/21 12:24:11;;;;;;;;;;;16.20;99.90;;;;;;5124646;27;1538;-52
2022/10/21 12:26:51;;;;;;;;;;;16.60;99.90;;;;;;5106874;27;2194;-52
2022/10/21 12:29:35;;;;;;;;;;;16.90;99.90;;;;;;5071815;27;1364;-52
2022/10/21 12:32:18;;;;;;;;;;;16.80;99.90;;;;;;5119533;27;1552;-52
2022/10/21 12:34:56;;;;;;;;;;;16.70;99.90;;;;;;5129879;27;1743;-52
2022/10/21 12:37:45;;;;;;;;;;;16.50;99.90;;;;;;5090921;27;1659;-53
2022/10/21 12:40:36;;;;;;;;;;;16.40;99.90;;;;;;5112396;27;1752;-52
2022/10/21 12:43:21;;;;;;;;;;;16.40;99.90;;;;;;5121303;27;2231;-54
2022/10/21 12:46:05;;;;;;;;;;;16.40;99.90;;;;;;5099172;27;2146;-53
2022/10/21 12:48:45;;;;;;;;;;;16.50;99.90;;;;;;5101463;27;1950;-53
2022/10/21 12:51:24;;;;;;;;;;;16.50;99.90;;;;;;5116232;27;1543;-53
2022/10/21 12:54:07;;;;;;;;;;;16.50;99.90;;;;;;5133427;27;1938;-52
2022/10/21 12:56:46;;;;;;;;;;;16.50;99.90;;;;;;5102448;27;1458;-53
2022/10/21 13:02:05;;;;;;;;;;;16.60;99.90;;;;;;5150556;27;1494;-48
2022/10/21 13:06:02;;;;;;;6.57;5.70;;;16.80;99.90;;;;;;5080280;27;20681;-48
2022/10/21 13:09:38;;;;;;;6.93;6.35;;;;;;;;;;5108042;27;20571;-48
2022/10/21 13:12:28;;;;;;;7.88;7.00;;;;;;;;;;5113716;27;20569;-49
2022/10/21 13:21:37;;;;;;;6.50;5.90;;;;;;;;;;5117366;27;20561;-50
2022/10/21 13:24:20;;;;;;;;;;;;;;;;;;692477;27;20000;-53
2022/10/21 13:24:51;;;;;;;;;;;;;;;;;;711524;27;19989;-53
